sensor_id;sensor_type;location;lat;lon;timestamp;P1;durP1;ratioP1;P2;durP2;ratioP2
5876;SDS011;2964;42.144;24.730;2023-11-25T00:02:06;57.70;;;35.33;;
5876;SDS011;2964;42.144;24.730;2023-11-25T00:04:33;60.37;;;35.73;;
5876;SDS011;2964;42.144;24.730;2023-11-25T00:07:00;59.87;;;35.90;;
5876;SDS011;2964;42.144;24.730;2023-11-25T00:09:27;64.20;;;37.80;;
5876;SDS011;2964;42.144;24.730;2023-11-25T00:11:53;62.20;;;36.57;;
5876;SDS011;2964;42.144;24.730;2023-11-25T00:14:21;59.00;;;36.13;;
5876;SDS011;2964;42.144;24.730;2023-11-25T00:16:48;62.43;;;37.63;;
5876;SDS011;2964;42.144;24.730;2023-11-25T00:19:16;59.83;;;38.30;;
5876;SDS011;2964;42.144;24.730;2023-11-25T00:21:42;60.20;;;36.83;;
5876;SDS011;2964;42.144;24.730;2023-11-25T00:24:09;66.27;;;36.23;;
5876;SDS011;2964;42.144;24.730;2023-11-25T00:26:36;63.00;;;36.77;;
5876;SDS011;2964;42.144;24.730;2023-11-25T00:29:03;64.13;;;37.93;;
5876;SDS011;2964;42.144;24.730;2023-11-25T00:31:31;68.03;;;38.30;;
5876;SDS011;2964;42.144;24.730;2023-11-25T00:33:58;75.33;;;38.70;;
5876;SDS011;2964;42.144;24.730;2023-11-25T00:36:25;66.13;;;37.77;;
5876;SDS011;2964;42.144;24.730;2023-11-25T00:38:52;57.30;;;36.40;;
5876;SDS011;2964;42.144;24.730;2023-11-25T00:41:18;60.80;;;37.27;;
5876;SDS011;2964;42.144;24.730;2023-11-25T00:43:45;65.60;;;36.63;;
5876;SDS011;2964;42.144;24.730;2023-11-25T00:46:12;73.60;;;39.63;;
5876;SDS011;2964;42.144;24.730;2023-11-25T00:48:40;72.30;;;38.20;;
5876;SDS011;2964;42.144;24.730;2023-11-25T00:51:08;65.97;;;37.93;;
5876;SDS011;2964;42.144;24.730;2023-11-25T00:53:35;66.83;;;39.50;;
5876;SDS011;2964;42.144;24.730;2023-11-25T00:56:03;74.70;;;40.63;;
5876;SDS011;2964;42.144;24.730;2023-11-25T00:58:31;70.37;;;40.53;;
5876;SDS011;2964;42.144;24.730;2023-11-25T01:00:58;67.73;;;39.53;;
5876;SDS011;2964;42.144;24.730;2023-11-25T01:03:25;68.90;;;38.87;;
5876;SDS011;2964;42.144;24.730;2023-11-25T01:05:54;69.47;;;39.67;;
5876;SDS011;2964;42.144;24.730;2023-11-25T01:08:20;71.90;;;39.90;;
5876;SDS011;2964;42.144;24.730;2023-11-25T01:10:51;67.97;;;39.23;;
5876;SDS011;2964;42.144;24.730;2023-11-25T01:13:18;70.13;;;38.27;;
5876;SDS011;2964;42.144;24.730;2023-11-25T01:15:44;68.90;;;39.07;;
5876;SDS011;2964;42.144;24.730;2023-11-25T01:18:11;68.80;;;39.53;;
5876;SDS011;2964;42.144;24.730;2023-11-25T01:20:38;66.97;;;38.67;;
5876;SDS011;2964;42.144;24.730;2023-11-25T01:23:06;70.37;;;39.80;;
5876;SDS011;2964;42.144;24.730;2023-11-25T01:25:33;69.37;;;39.87;;
5876;SDS011;2964;42.144;24.730;2023-11-25T01:28:00;69.10;;;39.17;;
5876;SDS011;2964;42.144;24.730;2023-11-25T01:30:27;71.37;;;38.97;;
5876;SDS011;2964;42.144;24.730;2023-11-25T01:32:53;69.03;;;37.47;;
5876;SDS011;2964;42.144;24.730;2023-11-25T01:35:20;73.23;;;39.30;;
5876;SDS011;2964;42.144;24.730;2023-11-25T01:37:47;74.00;;;39.07;;
5876;SDS011;2964;42.144;24.730;2023-11-25T01:40:15;65.13;;;35.87;;
5876;SDS011;2964;42.144;24.730;2023-11-25T01:42:42;63.40;;;36.60;;
5876;SDS011;2964;42.144;24.730;2023-11-25T01:45:09;72.67;;;35.90;;
5876;SDS011;2964;42.144;24.730;2023-11-25T01:47:37;66.40;;;36.97;;
5876;SDS011;2964;42.144;24.730;2023-11-25T01:50:05;65.77;;;38.90;;
5876;SDS011;2964;42.144;24.730;2023-11-25T01:52:33;62.33;;;37.07;;
5876;SDS011;2964;42.144;24.730;2023-11-25T01:55:01;60.67;;;36.43;;
5876;SDS011;2964;42.144;24.730;2023-11-25T01:57:30;69.57;;;40.50;;
5876;SDS011;2964;42.144;24.730;2023-11-25T01:59:57;72.13;;;41.33;;
5876;SDS011;2964;42.144;24.730;2023-11-25T02:02:25;70.17;;;38.53;;
5876;SDS011;2964;42.144;24.730;2023-11-25T02:04:55;69.93;;;37.73;;
5876;SDS011;2964;42.144;24.730;2023-11-25T02:07:21;72.67;;;39.03;;
5876;SDS011;2964;42.144;24.730;2023-11-25T02:09:48;67.80;;;39.30;;
5876;SDS011;2964;42.144;24.730;2023-11-25T02:12:15;67.97;;;39.77;;
5876;SDS011;2964;42.144;24.730;2023-11-25T02:14:43;67.77;;;38.80;;
5876;SDS011;2964;42.144;24.730;2023-11-25T02:17:13;60.43;;;37.57;;
5876;SDS011;2964;42.144;24.730;2023-11-25T02:19:41;70.20;;;39.50;;
5876;SDS011;2964;42.144;24.730;2023-11-25T02:22:08;70.23;;;39.07;;
5876;SDS011;2964;42.144;24.730;2023-11-25T02:24:36;69.83;;;38.63;;
5876;SDS011;2964;42.144;24.730;2023-11-25T02:27:04;74.33;;;40.57;;
5876;SDS011;2964;42.144;24.730;2023-11-25T02:29:31;68.10;;;37.47;;
5876;SDS011;2964;42.144;24.730;2023-11-25T02:32:00;69.90;;;38.20;;
5876;SDS011;2964;42.144;24.730;2023-11-25T02:34:29;67.10;;;37.97;;
5876;SDS011;2964;42.144;24.730;2023-11-25T02:36:55;68.40;;;38.27;;
5876;SDS011;2964;42.144;24.730;2023-11-25T02:39:23;59.37;;;36.87;;
5876;SDS011;2964;42.144;24.730;2023-11-25T02:41:51;73.77;;;38.63;;
5876;SDS011;2964;42.144;24.730;2023-11-25T02:44:19;69.30;;;39.50;;
5876;SDS011;2964;42.144;24.730;2023-11-25T02:46:47;71.43;;;39.53;;
5876;SDS011;2964;42.144;24.730;2023-11-25T02:49:14;67.60;;;38.57;;
5876;SDS011;2964;42.144;24.730;2023-11-25T02:51:46;80.23;;;40.47;;
5876;SDS011;2964;42.144;24.730;2023-11-25T02:54:13;74.37;;;41.27;;
5876;SDS011;2964;42.144;24.730;2023-11-25T02:56:40;80.53;;;41.27;;
5876;SDS011;2964;42.144;24.730;2023-11-25T02:59:08;80.13;;;41.50;;
5876;SDS011;2964;42.144;24.730;2023-11-25T03:01:37;83.97;;;41.90;;
5876;SDS011;2964;42.144;24.730;2023-11-25T03:04:07;73.87;;;39.80;;
5876;SDS011;2964;42.144;24.730;2023-11-25T03:06:36;77.63;;;40.57;;
5876;SDS011;2964;42.144;24.730;2023-11-25T03:09:03;74.50;;;40.47;;
5876;SDS011;2964;42.144;24.730;2023-11-25T03:11:34;73.60;;;40.47;;
5876;SDS011;2964;42.144;24.730;2023-11-25T03:14:01;67.40;;;40.00;;
5876;SDS011;2964;42.144;24.730;2023-11-25T03:16:30;75.70;;;42.17;;
5876;SDS011;2964;42.144;24.730;2023-11-25T03:18:56;75.93;;;41.83;;
5876;SDS011;2964;42.144;24.730;2023-11-25T03:21:23;75.47;;;41.50;;
5876;SDS011;2964;42.144;24.730;2023-11-25T03:23:50;71.33;;;41.53;;
5876;SDS011;2964;42.144;24.730;2023-11-25T03:26:17;66.57;;;39.80;;
5876;SDS011;2964;42.144;24.730;2023-11-25T03:28:44;63.03;;;36.50;;
5876;SDS011;2964;42.144;24.730;2023-11-25T03:31:10;70.50;;;38.40;;
5876;SDS011;2964;42.144;24.730;2023-11-25T03:33:39;69.10;;;39.03;;
5876;SDS011;2964;42.144;24.730;2023-11-25T03:36:06;63.63;;;38.60;;
5876;SDS011;2964;42.144;24.730;2023-11-25T03:38:33;66.00;;;38.00;;
5876;SDS011;2964;42.144;24.730;2023-11-25T03:41:00;67.87;;;37.07;;
5876;SDS011;2964;42.144;24.730;2023-11-25T03:43:26;69.83;;;39.33;;
5876;SDS011;2964;42.144;24.730;2023-11-25T03:45:53;79.63;;;40.43;;
5876;SDS011;2964;42.144;24.730;2023-11-25T03:48:20;74.00;;;40.97;;
5876;SDS011;2964;42.144;24.730;2023-11-25T03:50:48;74.67;;;39.70;;
5876;SDS011;2964;42.144;24.730;2023-11-25T03:53:14;70.23;;;39.87;;
5876;SDS011;2964;42.144;24.730;2023-11-25T03:55:43;68.47;;;38.60;;
5876;SDS011;2964;42.144;24.730;2023-11-25T03:58:10;62.20;;;37.83;;
5876;SDS011;2964;42.144;24.730;2023-11-25T04:00:37;66.17;;;38.70;;
5876;SDS011;2964;42.144;24.730;2023-11-25T04:03:04;68.10;;;38.23;;
5876;SDS011;2964;42.144;24.730;2023-11-25T04:05:30;68.47;;;38.67;;
5876;SDS011;2964;42.144;24.730;2023-11-25T04:07:59;66.40;;;36.70;;
5876;SDS011;2964;42.144;24.730;2023-11-25T04:10:25;64.77;;;37.37;;
5876;SDS011;2964;42.144;24.730;2023-11-25T04:12:52;69.80;;;37.97;;
5876;SDS011;2964;42.144;24.730;2023-11-25T04:15:21;64.17;;;37.40;;
5876;SDS011;2964;42.144;24.730;2023-11-25T04:17:48;70.37;;;39.37;;
5876;SDS011;2964;42.144;24.730;2023-11-25T04:20:16;73.30;;;39.03;;
5876;SDS011;2964;42.144;24.730;2023-11-25T04:22:49;75.83;;;39.57;;
5876;SDS011;2964;42.144;24.730;2023-11-25T04:25:17;73.03;;;39.17;;
5876;SDS011;2964;42.144;24.730;2023-11-25T04:27:45;66.60;;;37.93;;
5876;SDS011;2964;42.144;24.730;2023-11-25T04:30:13;72.13;;;38.27;;
5876;SDS011;2964;42.144;24.730;2023-11-25T04:32:42;82.03;;;42.93;;
5876;SDS011;2964;42.144;24.730;2023-11-25T04:35:10;66.77;;;38.73;;
5876;SDS011;2964;42.144;24.730;2023-11-25T04:37:40;75.13;;;39.37;;
5876;SDS011;2964;42.144;24.730;2023-11-25T04:40:09;73.07;;;40.03;;
5876;SDS011;2964;42.144;24.730;2023-11-25T04:42:38;69.47;;;39.77;;
5876;SDS011;2964;42.144;24.730;2023-11-25T04:45:06;78.07;;;42.70;;
5876;SDS011;2964;42.144;24.730;2023-11-25T04:47:41;76.90;;;42.27;;
5876;SDS011;2964;42.144;24.730;2023-11-25T04:50:09;78.90;;;41.13;;
5876;SDS011;2964;42.144;24.730;2023-11-25T04:52:36;84.53;;;44.20;;
5876;SDS011;2964;42.144;24.730;2023-11-25T04:55:04;84.60;;;44.47;;
5876;SDS011;2964;42.144;24.730;2023-11-25T04:57:34;85.80;;;43.43;;
5876;SDS011;2964;42.144;24.730;2023-11-25T05:00:02;76.30;;;41.43;;
5876;SDS011;2964;42.144;24.730;2023-11-25T05:02:34;75.73;;;41.47;;
5876;SDS011;2964;42.144;24.730;2023-11-25T05:05:00;75.13;;;43.23;;
5876;SDS011;2964;42.144;24.730;2023-11-25T05:07:27;78.40;;;41.90;;
5876;SDS011;2964;42.144;24.730;2023-11-25T05:09:54;75.27;;;42.50;;
5876;SDS011;2964;42.144;24.730;2023-11-25T05:12:21;77.60;;;40.60;;
5876;SDS011;2964;42.144;24.730;2023-11-25T05:14:49;75.40;;;41.50;;
5876;SDS011;2964;42.144;24.730;2023-11-25T05:17:17;78.07;;;42.63;;
5876;SDS011;2964;42.144;24.730;2023-11-25T05:19:44;81.93;;;43.50;;
5876;SDS011;2964;42.144;24.730;2023-11-25T05:22:11;85.07;;;42.47;;
5876;SDS011;2964;42.144;24.730;2023-11-25T05:24:37;79.73;;;42.30;;
5876;SDS011;2964;42.144;24.730;2023-11-25T05:27:04;85.93;;;43.60;;
5876;SDS011;2964;42.144;24.730;2023-11-25T05:29:31;84.47;;;44.63;;
5876;SDS011;2964;42.144;24.730;2023-11-25T05:31:58;78.63;;;41.87;;
5876;SDS011;2964;42.144;24.730;2023-11-25T05:34:26;96.30;;;39.67;;
5876;SDS011;2964;42.144;24.730;2023-11-25T05:36:53;72.77;;;38.37;;
5876;SDS011;2964;42.144;24.730;2023-11-25T05:39:20;82.80;;;40.63;;
5876;SDS011;2964;42.144;24.730;2023-11-25T05:41:47;143.73;;;40.20;;
5876;SDS011;2964;42.144;24.730;2023-11-25T05:44:14;125.63;;;37.10;;
5876;SDS011;2964;42.144;24.730;2023-11-25T05:46:41;129.03;;;36.50;;
5876;SDS011;2964;42.144;24.730;2023-11-25T05:49:07;74.20;;;37.80;;
5876;SDS011;2964;42.144;24.730;2023-11-25T05:51:36;72.37;;;38.57;;
5876;SDS011;2964;42.144;24.730;2023-11-25T05:54:07;76.63;;;39.20;;
5876;SDS011;2964;42.144;24.730;2023-11-25T05:56:38;75.97;;;38.53;;
5876;SDS011;2964;42.144;24.730;2023-11-25T05:59:04;80.50;;;38.40;;
5876;SDS011;2964;42.144;24.730;2023-11-25T06:01:33;76.90;;;38.60;;
5876;SDS011;2964;42.144;24.730;2023-11-25T06:03:59;71.70;;;39.60;;
5876;SDS011;2964;42.144;24.730;2023-11-25T06:06:26;75.17;;;38.17;;
5876;SDS011;2964;42.144;24.730;2023-11-25T06:08:54;75.07;;;38.60;;
5876;SDS011;2964;42.144;24.730;2023-11-25T06:11:22;76.53;;;38.10;;
5876;SDS011;2964;42.144;24.730;2023-11-25T06:13:51;81.87;;;37.47;;
5876;SDS011;2964;42.144;24.730;2023-11-25T06:16:18;98.53;;;41.00;;
5876;SDS011;2964;42.144;24.730;2023-11-25T06:18:45;76.37;;;38.23;;
5876;SDS011;2964;42.144;24.730;2023-11-25T06:21:12;89.83;;;38.13;;
5876;SDS011;2964;42.144;24.730;2023-11-25T06:23:39;77.23;;;38.13;;
5876;SDS011;2964;42.144;24.730;2023-11-25T06:26:09;86.03;;;38.03;;
5876;SDS011;2964;42.144;24.730;2023-11-25T06:28:38;74.50;;;39.43;;
5876;SDS011;2964;42.144;24.730;2023-11-25T06:31:06;87.67;;;39.27;;
5876;SDS011;2964;42.144;24.730;2023-11-25T06:33:33;80.80;;;38.53;;
5876;SDS011;2964;42.144;24.730;2023-11-25T06:36:00;109.43;;;39.97;;
5876;SDS011;2964;42.144;24.730;2023-11-25T06:38:27;75.83;;;37.23;;
5876;SDS011;2964;42.144;24.730;2023-11-25T06:40:53;81.40;;;39.63;;
5876;SDS011;2964;42.144;24.730;2023-11-25T06:43:22;88.70;;;40.80;;
5876;SDS011;2964;42.144;24.730;2023-11-25T06:45:49;86.43;;;39.07;;
5876;SDS011;2964;42.144;24.730;2023-11-25T06:48:16;87.70;;;39.73;;
5876;SDS011;2964;42.144;24.730;2023-11-25T06:50:43;82.07;;;40.30;;
5876;SDS011;2964;42.144;24.730;2023-11-25T06:53:10;90.43;;;42.20;;
5876;SDS011;2964;42.144;24.730;2023-11-25T06:55:37;88.20;;;41.07;;
5876;SDS011;2964;42.144;24.730;2023-11-25T06:58:06;99.03;;;41.83;;
5876;SDS011;2964;42.144;24.730;2023-11-25T07:00:34;96.23;;;42.20;;
5876;SDS011;2964;42.144;24.730;2023-11-25T07:03:02;93.90;;;42.47;;
5876;SDS011;2964;42.144;24.730;2023-11-25T07:05:29;104.00;;;43.63;;
5876;SDS011;2964;42.144;24.730;2023-11-25T07:07:56;97.30;;;42.47;;
5876;SDS011;2964;42.144;24.730;2023-11-25T07:10:22;106.03;;;42.37;;
5876;SDS011;2964;42.144;24.730;2023-11-25T07:12:50;111.97;;;45.90;;
5876;SDS011;2964;42.144;24.730;2023-11-25T07:15:17;100.10;;;43.10;;
5876;SDS011;2964;42.144;24.730;2023-11-25T07:17:45;97.73;;;40.53;;
5876;SDS011;2964;42.144;24.730;2023-11-25T07:20:13;96.37;;;42.93;;
5876;SDS011;2964;42.144;24.730;2023-11-25T07:22:43;95.30;;;40.70;;
5876;SDS011;2964;42.144;24.730;2023-11-25T07:25:10;98.10;;;43.03;;
5876;SDS011;2964;42.144;24.730;2023-11-25T07:27:37;86.43;;;40.20;;
5876;SDS011;2964;42.144;24.730;2023-11-25T07:30:05;76.90;;;38.27;;
5876;SDS011;2964;42.144;24.730;2023-11-25T07:32:33;84.90;;;41.57;;
5876;SDS011;2964;42.144;24.730;2023-11-25T07:35:03;89.40;;;40.47;;
5876;SDS011;2964;42.144;24.730;2023-11-25T07:37:32;78.83;;;39.87;;
5876;SDS011;2964;42.144;24.730;2023-11-25T07:39:59;82.93;;;39.03;;
5876;SDS011;2964;42.144;24.730;2023-11-25T07:42:27;70.20;;;37.93;;
5876;SDS011;2964;42.144;24.730;2023-11-25T07:44:54;72.03;;;37.73;;
5876;SDS011;2964;42.144;24.730;2023-11-25T07:47:21;77.53;;;38.70;;
5876;SDS011;2964;42.144;24.730;2023-11-25T07:49:48;77.07;;;39.70;;
5876;SDS011;2964;42.144;24.730;2023-11-25T07:52:16;74.23;;;38.60;;
5876;SDS011;2964;42.144;24.730;2023-11-25T07:54:43;78.73;;;37.40;;
5876;SDS011;2964;42.144;24.730;2023-11-25T07:57:10;71.77;;;38.87;;
5876;SDS011;2964;42.144;24.730;2023-11-25T07:59:37;62.00;;;35.40;;
5876;SDS011;2964;42.144;24.730;2023-11-25T08:02:03;68.87;;;37.53;;
5876;SDS011;2964;42.144;24.730;2023-11-25T08:04:30;67.93;;;37.10;;
5876;SDS011;2964;42.144;24.730;2023-11-25T08:06:57;67.93;;;36.27;;
5876;SDS011;2964;42.144;24.730;2023-11-25T08:09:26;69.47;;;37.47;;
5876;SDS011;2964;42.144;24.730;2023-11-25T08:11:52;60.63;;;34.50;;
5876;SDS011;2964;42.144;24.730;2023-11-25T08:14:19;63.17;;;34.07;;
5876;SDS011;2964;42.144;24.730;2023-11-25T08:16:46;64.67;;;34.33;;
5876;SDS011;2964;42.144;24.730;2023-11-25T08:19:14;56.23;;;32.03;;
5876;SDS011;2964;42.144;24.730;2023-11-25T08:21:41;60.87;;;32.70;;
5876;SDS011;2964;42.144;24.730;2023-11-25T08:24:08;62.60;;;32.50;;
5876;SDS011;2964;42.144;24.730;2023-11-25T08:26:37;54.90;;;30.50;;
5876;SDS011;2964;42.144;24.730;2023-11-25T08:29:03;45.10;;;28.07;;
5876;SDS011;2964;42.144;24.730;2023-11-25T08:31:31;42.40;;;24.37;;
5876;SDS011;2964;42.144;24.730;2023-11-25T08:34:01;36.67;;;24.00;;
5876;SDS011;2964;42.144;24.730;2023-11-25T08:36:28;37.60;;;24.17;;
5876;SDS011;2964;42.144;24.730;2023-11-25T08:38:55;36.07;;;23.53;;
5876;SDS011;2964;42.144;24.730;2023-11-25T08:41:26;32.00;;;22.07;;
5876;SDS011;2964;42.144;24.730;2023-11-25T08:43:56;29.43;;;19.93;;
5876;SDS011;2964;42.144;24.730;2023-11-25T08:46:24;25.37;;;18.03;;
5876;SDS011;2964;42.144;24.730;2023-11-25T08:48:51;20.33;;;15.67;;
5876;SDS011;2964;42.144;24.730;2023-11-25T08:51:18;13.73;;;11.20;;
5876;SDS011;2964;42.144;24.730;2023-11-25T08:53:45;7.23;;;6.73;;
5876;SDS011;2964;42.144;24.730;2023-11-25T08:56:14;6.97;;;6.47;;
5876;SDS011;2964;42.144;24.730;2023-11-25T08:58:42;4.80;;;4.60;;
5876;SDS011;2964;42.144;24.730;2023-11-25T09:01:10;3.93;;;3.60;;
5876;SDS011;2964;42.144;24.730;2023-11-25T09:03:37;3.33;;;3.23;;
5876;SDS011;2964;42.144;24.730;2023-11-25T09:06:04;3.27;;;3.13;;
5876;SDS011;2964;42.144;24.730;2023-11-25T09:08:32;3.87;;;3.57;;
5876;SDS011;2964;42.144;24.730;2023-11-25T09:10:58;3.00;;;2.90;;
5876;SDS011;2964;42.144;24.730;2023-11-25T09:13:26;3.10;;;3.00;;
5876;SDS011;2964;42.144;24.730;2023-11-25T09:15:52;3.10;;;3.00;;
5876;SDS011;2964;42.144;24.730;2023-11-25T09:18:21;3.43;;;3.13;;
5876;SDS011;2964;42.144;24.730;2023-11-25T09:20:47;3.43;;;3.30;;
5876;SDS011;2964;42.144;24.730;2023-11-25T09:23:14;4.57;;;3.43;;
5876;SDS011;2964;42.144;24.730;2023-11-25T09:25:41;3.50;;;3.30;;
5876;SDS011;2964;42.144;24.730;2023-11-25T09:28:07;4.10;;;3.53;;
5876;SDS011;2964;42.144;24.730;2023-11-25T09:30:34;4.37;;;4.00;;
5876;SDS011;2964;42.144;24.730;2023-11-25T09:33:01;4.10;;;3.90;;
5876;SDS011;2964;42.144;24.730;2023-11-25T09:35:29;3.80;;;3.60;;
5876;SDS011;2964;42.144;24.730;2023-11-25T09:37:56;3.27;;;3.00;;
5876;SDS011;2964;42.144;24.730;2023-11-25T09:40:22;3.37;;;3.20;;
5876;SDS011;2964;42.144;24.730;2023-11-25T09:42:54;4.80;;;2.97;;
5876;SDS011;2964;42.144;24.730;2023-11-25T09:45:21;2.67;;;2.57;;
5876;SDS011;2964;42.144;24.730;2023-11-25T09:47:53;2.87;;;2.73;;
5876;SDS011;2964;42.144;24.730;2023-11-25T09:50:20;2.83;;;2.73;;
5876;SDS011;2964;42.144;24.730;2023-11-25T09:52:49;3.40;;;3.30;;
5876;SDS011;2964;42.144;24.730;2023-11-25T09:55:16;3.60;;;3.43;;
5876;SDS011;2964;42.144;24.730;2023-11-25T09:57:44;3.10;;;3.00;;
5876;SDS011;2964;42.144;24.730;2023-11-25T10:00:15;3.37;;;3.27;;
5876;SDS011;2964;42.144;24.730;2023-11-25T10:02:43;3.00;;;2.80;;
5876;SDS011;2964;42.144;24.730;2023-11-25T10:05:11;2.63;;;2.53;;
5876;SDS011;2964;42.144;24.730;2023-11-25T10:07:38;3.03;;;2.83;;
5876;SDS011;2964;42.144;24.730;2023-11-25T10:10:07;3.00;;;2.90;;
5876;SDS011;2964;42.144;24.730;2023-11-25T10:12:34;3.93;;;3.17;;
5876;SDS011;2964;42.144;24.730;2023-11-25T10:15:01;4.07;;;2.80;;
5876;SDS011;2964;42.144;24.730;2023-11-25T10:17:28;3.20;;;3.10;;
5876;SDS011;2964;42.144;24.730;2023-11-25T10:20:05;3.63;;;3.33;;
5876;SDS011;2964;42.144;24.730;2023-11-25T10:22:43;3.30;;;3.20;;
5876;SDS011;2964;42.144;24.730;2023-11-25T10:25:11;8.23;;;3.13;;
5876;SDS011;2964;42.144;24.730;2023-11-25T10:27:38;3.40;;;3.20;;
5876;SDS011;2964;42.144;24.730;2023-11-25T10:30:05;3.17;;;2.97;;
5876;SDS011;2964;42.144;24.730;2023-11-25T10:32:33;3.60;;;3.30;;
5876;SDS011;2964;42.144;24.730;2023-11-25T10:35:00;3.27;;;3.17;;
5876;SDS011;2964;42.144;24.730;2023-11-25T10:37:27;3.23;;;3.03;;
5876;SDS011;2964;42.144;24.730;2023-11-25T10:39:56;2.87;;;2.70;;
5876;SDS011;2964;42.144;24.730;2023-11-25T10:42:26;3.43;;;3.33;;
5876;SDS011;2964;42.144;24.730;2023-11-25T10:44:54;3.10;;;3.00;;
5876;SDS011;2964;42.144;24.730;2023-11-25T10:47:27;3.10;;;3.00;;
5876;SDS011;2964;42.144;24.730;2023-11-25T10:49:55;3.50;;;3.30;;
5876;SDS011;2964;42.144;24.730;2023-11-25T10:52:23;5.10;;;3.33;;
5876;SDS011;2964;42.144;24.730;2023-11-25T10:54:50;3.27;;;3.17;;
5876;SDS011;2964;42.144;24.730;2023-11-25T10:57:17;3.37;;;3.20;;
5876;SDS011;2964;42.144;24.730;2023-11-25T10:59:45;3.30;;;3.20;;
5876;SDS011;2964;42.144;24.730;2023-11-25T11:02:13;3.37;;;3.27;;
5876;SDS011;2964;42.144;24.730;2023-11-25T11:04:49;3.40;;;3.20;;
5876;SDS011;2964;42.144;24.730;2023-11-25T11:07:22;3.43;;;3.20;;
5876;SDS011;2964;42.144;24.730;2023-11-25T11:09:53;3.43;;;3.20;;
5876;SDS011;2964;42.144;24.730;2023-11-25T11:12:26;3.73;;;3.63;;
5876;SDS011;2964;42.144;24.730;2023-11-25T11:14:59;3.33;;;3.23;;
5876;SDS011;2964;42.144;24.730;2023-11-25T11:17:32;3.20;;;3.10;;
5876;SDS011;2964;42.144;24.730;2023-11-25T11:20:05;2.70;;;2.60;;
5876;SDS011;2964;42.144;24.730;2023-11-25T11:22:38;3.60;;;3.40;;
5876;SDS011;2964;42.144;24.730;2023-11-25T11:25:08;3.37;;;3.27;;
5876;SDS011;2964;42.144;24.730;2023-11-25T11:27:43;3.60;;;3.50;;
5876;SDS011;2964;42.144;24.730;2023-11-25T11:30:18;3.27;;;3.17;;
5876;SDS011;2964;42.144;24.730;2023-11-25T11:32:50;3.53;;;3.33;;
5876;SDS011;2964;42.144;24.730;2023-11-25T11:35:18;3.90;;;3.60;;
5876;SDS011;2964;42.144;24.730;2023-11-25T11:37:46;3.87;;;3.53;;
5876;SDS011;2964;42.144;24.730;2023-11-25T11:40:14;3.50;;;3.40;;
5876;SDS011;2964;42.144;24.730;2023-11-25T11:42:47;3.90;;;3.67;;
5876;SDS011;2964;42.144;24.730;2023-11-25T11:45:14;3.83;;;3.53;;
5876;SDS011;2964;42.144;24.730;2023-11-25T11:47:45;3.20;;;3.00;;
5876;SDS011;2964;42.144;24.730;2023-11-25T11:50:16;3.33;;;3.20;;
5876;SDS011;2964;42.144;24.730;2023-11-25T11:52:44;3.70;;;3.60;;
5876;SDS011;2964;42.144;24.730;2023-11-25T11:55:32;3.83;;;3.63;;
5876;SDS011;2964;42.144;24.730;2023-11-25T11:58:03;3.97;;;3.70;;
5876;SDS011;2964;42.144;24.730;2023-11-25T12:00:32;2.90;;;2.80;;
5876;SDS011;2964;42.144;24.730;2023-11-25T12:03:03;3.43;;;3.23;;
5876;SDS011;2964;42.144;24.730;2023-11-25T12:05:31;3.63;;;3.43;;
5876;SDS011;2964;42.144;24.730;2023-11-25T12:07:58;3.77;;;3.47;;
5876;SDS011;2964;42.144;24.730;2023-11-25T12:10:25;3.50;;;3.40;;
5876;SDS011;2964;42.144;24.730;2023-11-25T12:12:52;4.67;;;4.10;;
5876;SDS011;2964;42.144;24.730;2023-11-25T12:15:20;3.47;;;3.30;;
5876;SDS011;2964;42.144;24.730;2023-11-25T12:17:47;3.50;;;3.40;;
5876;SDS011;2964;42.144;24.730;2023-11-25T12:20:15;3.53;;;3.43;;
5876;SDS011;2964;42.144;24.730;2023-11-25T12:22:42;3.40;;;3.23;;
5876;SDS011;2964;42.144;24.730;2023-11-25T12:25:09;3.90;;;3.70;;
5876;SDS011;2964;42.144;24.730;2023-11-25T12:27:40;4.07;;;3.87;;
5876;SDS011;2964;42.144;24.730;2023-11-25T12:30:12;3.67;;;3.47;;
5876;SDS011;2964;42.144;24.730;2023-11-25T12:32:39;4.53;;;4.20;;
5876;SDS011;2964;42.144;24.730;2023-11-25T12:35:07;4.90;;;4.60;;
5876;SDS011;2964;42.144;24.730;2023-11-25T12:37:38;4.43;;;4.13;;
5876;SDS011;2964;42.144;24.730;2023-11-25T12:40:19;5.00;;;4.27;;
5876;SDS011;2964;42.144;24.730;2023-11-25T12:42:49;5.17;;;4.77;;
5876;SDS011;2964;42.144;24.730;2023-11-25T12:45:29;4.60;;;4.40;;
5876;SDS011;2964;42.144;24.730;2023-11-25T12:47:57;4.40;;;4.10;;
5876;SDS011;2964;42.144;24.730;2023-11-25T12:50:24;4.17;;;3.77;;
5876;SDS011;2964;42.144;24.730;2023-11-25T12:53:08;4.00;;;3.70;;
5876;SDS011;2964;42.144;24.730;2023-11-25T12:55:39;4.67;;;4.23;;
5876;SDS011;2964;42.144;24.730;2023-11-25T12:58:09;3.70;;;3.60;;
5876;SDS011;2964;42.144;24.730;2023-11-25T13:00:41;3.70;;;3.50;;
5876;SDS011;2964;42.144;24.730;2023-11-25T13:03:10;4.33;;;4.03;;
5876;SDS011;2964;42.144;24.730;2023-11-25T13:05:37;4.00;;;3.80;;
5876;SDS011;2964;42.144;24.730;2023-11-25T13:08:22;4.07;;;3.80;;
5876;SDS011;2964;42.144;24.730;2023-11-25T13:10:52;3.27;;;3.07;;
5876;SDS011;2964;42.144;24.730;2023-11-25T13:13:20;4.80;;;3.90;;
5876;SDS011;2964;42.144;24.730;2023-11-25T13:15:48;3.73;;;3.53;;
5876;SDS011;2964;42.144;24.730;2023-11-25T13:18:15;4.47;;;4.17;;
5876;SDS011;2964;42.144;24.730;2023-11-25T13:20:41;3.80;;;3.60;;
5876;SDS011;2964;42.144;24.730;2023-11-25T13:23:09;3.50;;;3.30;;
5876;SDS011;2964;42.144;24.730;2023-11-25T13:25:37;4.10;;;3.90;;
5876;SDS011;2964;42.144;24.730;2023-11-25T13:28:04;3.60;;;3.50;;
5876;SDS011;2964;42.144;24.730;2023-11-25T13:30:34;3.90;;;3.70;;
5876;SDS011;2964;42.144;24.730;2023-11-25T13:33:01;4.00;;;3.80;;
5876;SDS011;2964;42.144;24.730;2023-11-25T13:35:27;4.27;;;4.07;;
5876;SDS011;2964;42.144;24.730;2023-11-25T13:37:55;4.00;;;3.80;;
5876;SDS011;2964;42.144;24.730;2023-11-25T13:40:24;4.30;;;3.97;;
5876;SDS011;2964;42.144;24.730;2023-11-25T13:42:56;4.27;;;3.97;;
5876;SDS011;2964;42.144;24.730;2023-11-25T13:45:23;3.80;;;3.50;;
5876;SDS011;2964;42.144;24.730;2023-11-25T13:47:50;4.30;;;4.10;;
5876;SDS011;2964;42.144;24.730;2023-11-25T13:50:18;4.70;;;3.50;;
5876;SDS011;2964;42.144;24.730;2023-11-25T13:52:45;3.77;;;3.67;;
5876;SDS011;2964;42.144;24.730;2023-11-25T13:55:12;4.37;;;3.97;;
5876;SDS011;2964;42.144;24.730;2023-11-25T13:57:41;3.93;;;3.73;;
5876;SDS011;2964;42.144;24.730;2023-11-25T14:00:10;4.40;;;4.20;;
5876;SDS011;2964;42.144;24.730;2023-11-25T14:02:38;4.67;;;4.30;;
5876;SDS011;2964;42.144;24.730;2023-11-25T14:05:05;4.00;;;3.80;;
5876;SDS011;2964;42.144;24.730;2023-11-25T14:07:34;4.10;;;3.90;;
5876;SDS011;2964;42.144;24.730;2023-11-25T14:10:02;3.33;;;3.23;;
5876;SDS011;2964;42.144;24.730;2023-11-25T14:12:29;4.13;;;3.80;;
5876;SDS011;2964;42.144;24.730;2023-11-25T14:14:56;4.17;;;3.97;;
5876;SDS011;2964;42.144;24.730;2023-11-25T14:17:25;4.27;;;4.07;;
5876;SDS011;2964;42.144;24.730;2023-11-25T14:19:52;3.87;;;3.67;;
5876;SDS011;2964;42.144;24.730;2023-11-25T14:22:19;3.70;;;3.40;;
5876;SDS011;2964;42.144;24.730;2023-11-25T14:24:46;3.60;;;3.50;;
5876;SDS011;2964;42.144;24.730;2023-11-25T14:27:13;4.53;;;3.70;;
5876;SDS011;2964;42.144;24.730;2023-11-25T14:29:40;5.37;;;4.10;;
5876;SDS011;2964;42.144;24.730;2023-11-25T14:32:09;4.93;;;4.63;;
5876;SDS011;2964;42.144;24.730;2023-11-25T14:34:37;4.40;;;4.10;;
5876;SDS011;2964;42.144;24.730;2023-11-25T14:37:05;4.40;;;4.10;;
5876;SDS011;2964;42.144;24.730;2023-11-25T14:39:32;4.00;;;3.60;;
5876;SDS011;2964;42.144;24.730;2023-11-25T14:41:59;3.23;;;3.13;;
5876;SDS011;2964;42.144;24.730;2023-11-25T14:44:26;3.93;;;3.73;;
5876;SDS011;2964;42.144;24.730;2023-11-25T14:46:54;4.27;;;3.53;;
5876;SDS011;2964;42.144;24.730;2023-11-25T14:49:21;4.03;;;3.73;;
5876;SDS011;2964;42.144;24.730;2023-11-25T14:51:50;4.83;;;4.53;;